sensor_id;sensor_type;location;lat;lon;timestamp;pressure;altitude;pressure_sealevel;temperature;humidity
28797;BME280;24974;54.444;18.560;2022-08-03T03:50:48;101489.13;;;17.47;66.49
28797;BME280;24974;54.444;18.560;2022-08-03T03:53:19;101487.72;;;17.62;65.97
28797;BME280;24974;54.444;18.560;2022-08-03T03:55:53;101491.59;;;17.70;65.78
28797;BME280;24974;54.444;18.560;2022-08-03T03:58:24;101492.91;;;17.72;65.22
28797;BME280;24974;54.444;18.560;2022-08-03T04:00:55;101492.59;;;17.74;65.67
28797;BME280;24974;54.444;18.560;2022-08-03T04:03:26;101490.38;;;17.79;65.65
28797;BME280;24974;54.444;18.560;2022-08-03T04:05:57;101498.88;;;17.83;65.58
28797;BME280;24974;54.444;18.560;2022-08-03T04:08:47;101495.56;;;17.89;65.68
28797;BME280;24974;54.444;18.560;2022-08-03T04:14:23;101492.09;;;17.93;66.11
28797;BME280;24974;54.444;18.560;2022-08-03T04:17:01;101498.13;;;17.95;65.91
28797;BME280;24974;54.444;18.560;2022-08-03T04:19:41;101497.66;;;18.13;65.37
28797;BME280;24974;54.444;18.560;2022-08-03T04:22:17;101508.91;;;18.17;65.40
28797;BME280;24974;54.444;18.560;2022-08-03T04:24:52;101498.25;;;18.19;65.48
28797;BME280;24974;54.444;18.560;2022-08-03T04:27:28;101501.53;;;18.33;64.88
28797;BME280;24974;54.444;18.560;2022-08-03T04:30:03;101503.44;;;18.41;64.84
28797;BME280;24974;54.444;18.560;2022-08-03T04:32:36;101508.59;;;18.64;64.02
28797;BME280;24974;54.444;18.560;2022-08-03T04:35:08;101505.75;;;18.72;64.01
28797;BME280;24974;54.444;18.560;2022-08-03T04:37:45;101505.66;;;18.81;63.90
28797;BME280;24974;54.444;18.560;2022-08-03T04:40:32;101501.97;;;19.02;63.09
28797;BME280;24974;54.444;18.560;2022-08-03T04:43:04;101503.16;;;19.25;62.43
28797;BME280;24974;54.444;18.560;2022-08-03T04:45:36;101508.25;;;19.60;61.65
28797;BME280;24974;54.444;18.560;2022-08-03T04:48:07;101507.09;;;19.61;61.37
28797;BME280;24974;54.444;18.560;2022-08-03T04:50:40;101511.56;;;19.90;60.49
28797;BME280;24974;54.444;18.560;2022-08-03T04:53:11;101505.38;;;19.96;60.65
28797;BME280;24974;54.444;18.560;2022-08-03T04:55:42;101498.91;;;20.48;58.68
28797;BME280;24974;54.444;18.560;2022-08-03T04:58:13;101498.69;;;21.01;57.08
28797;BME280;24974;54.444;18.560;2022-08-03T05:00:44;101508.41;;;21.22;56.74
28797;BME280;24974;54.444;18.560;2022-08-03T05:03:14;101507.34;;;21.43;55.70
28797;BME280;24974;54.444;18.560;2022-08-03T05:05:45;101501.94;;;21.50;55.20
28797;BME280;24974;54.444;18.560;2022-08-03T05:08:16;101518.97;;;21.45;55.66
28797;BME280;24974;54.444;18.560;2022-08-03T05:10:47;101512.34;;;21.34;56.12
28797;BME280;24974;54.444;18.560;2022-08-03T05:13:18;101518.34;;;21.04;56.83
28797;BME280;24974;54.444;18.560;2022-08-03T05:15:48;101514.81;;;21.23;56.56
28797;BME280;24974;54.444;18.560;2022-08-03T05:18:20;101512.56;;;21.13;57.33
28797;BME280;24974;54.444;18.560;2022-08-03T05:20:51;101514.28;;;21.17;57.00
28797;BME280;24974;54.444;18.560;2022-08-03T05:23:22;101512.97;;;21.27;56.94
28797;BME280;24974;54.444;18.560;2022-08-03T05:25:52;101511.78;;;21.28;56.92
28797;BME280;24974;54.444;18.560;2022-08-03T05:28:23;101527.00;;;21.46;56.27
28797;BME280;24974;54.444;18.560;2022-08-03T05:30:54;101515.63;;;21.55;55.01
28797;BME280;24974;54.444;18.560;2022-08-03T05:33:25;101525.13;;;21.50;55.28
28797;BME280;24974;54.444;18.560;2022-08-03T05:35:55;101520.41;;;21.55;54.80
28797;BME280;24974;54.444;18.560;2022-08-03T05:38:26;101520.09;;;21.95;50.54
28797;BME280;24974;54.444;18.560;2022-08-03T05:40:57;101523.81;;;21.99;51.58
28797;BME280;24974;54.444;18.560;2022-08-03T05:43:28;101523.41;;;22.16;48.98
28797;BME280;24974;54.444;18.560;2022-08-03T05:45:59;101514.53;;;22.33;48.78
28797;BME280;24974;54.444;18.560;2022-08-03T05:48:30;101517.69;;;21.93;50.04
28797;BME280;24974;54.444;18.560;2022-08-03T05:51:01;101514.56;;;21.79;50.24
28797;BME280;24974;54.444;18.560;2022-08-03T05:53:34;101524.97;;;21.98;49.81
28797;BME280;24974;54.444;18.560;2022-08-03T05:56:05;101521.78;;;22.15;49.66
28797;BME280;24974;54.444;18.560;2022-08-03T05:58:36;101527.06;;;22.40;49.47
28797;BME280;24974;54.444;18.560;2022-08-03T06:01:07;101526.75;;;22.45;50.25
28797;BME280;24974;54.444;18.560;2022-08-03T06:03:38;101533.72;;;22.31;51.61
28797;BME280;24974;54.444;18.560;2022-08-03T06:06:09;101530.31;;;22.42;51.28
28797;BME280;24974;54.444;18.560;2022-08-03T06:08:41;101533.88;;;22.61;50.23
28797;BME280;24974;54.444;18.560;2022-08-03T06:11:12;101532.09;;;22.73;49.76
28797;BME280;24974;54.444;18.560;2022-08-03T06:13:43;101536.66;;;22.81;50.07
28797;BME280;24974;54.444;18.560;2022-08-03T06:16:15;101540.28;;;22.81;50.10
28797;BME280;24974;54.444;18.560;2022-08-03T06:18:46;101543.00;;;22.97;49.03
28797;BME280;24974;54.444;18.560;2022-08-03T06:21:17;101538.06;;;23.13;48.61
28797;BME280;24974;54.444;18.560;2022-08-03T06:23:48;101534.06;;;23.37;47.58
28797;BME280;24974;54.444;18.560;2022-08-03T06:26:19;101542.63;;;23.48;46.95
28797;BME280;24974;54.444;18.560;2022-08-03T06:28:50;101535.88;;;23.76;46.54
28797;BME280;24974;54.444;18.560;2022-08-03T06:31:25;101533.63;;;23.88;46.08
28797;BME280;24974;54.444;18.560;2022-08-03T06:33:59;101530.28;;;23.79;47.79
28797;BME280;24974;54.444;18.560;2022-08-03T06:36:30;101533.63;;;23.88;47.93
28797;BME280;24974;54.444;18.560;2022-08-03T06:39:02;101542.50;;;23.90;47.93
28797;BME280;24974;54.444;18.560;2022-08-03T06:41:34;101534.13;;;23.94;47.47
28797;BME280;24974;54.444;18.560;2022-08-03T06:44:06;101530.91;;;23.95;47.85
28797;BME280;24974;54.444;18.560;2022-08-03T06:46:36;101526.00;;;24.19;47.42
28797;BME280;24974;54.444;18.560;2022-08-03T06:49:07;101529.53;;;24.42;46.82
28797;BME280;24974;54.444;18.560;2022-08-03T06:51:38;101531.34;;;24.61;46.61
28797;BME280;24974;54.444;18.560;2022-08-03T06:54:10;101532.13;;;24.58;46.68
28797;BME280;24974;54.444;18.560;2022-08-03T06:56:42;101525.78;;;24.68;46.57
28797;BME280;24974;54.444;18.560;2022-08-03T06:59:13;101528.78;;;24.86;45.71
28797;BME280;24974;54.444;18.560;2022-08-03T07:01:44;101529.69;;;24.97;45.93
28797;BME280;24974;54.444;18.560;2022-08-03T07:04:15;101527.72;;;25.01;45.91
28797;BME280;24974;54.444;18.560;2022-08-03T07:06:46;101527.47;;;25.14;45.95
28797;BME280;24974;54.444;18.560;2022-08-03T07:09:17;101529.69;;;24.97;45.68
28797;BME280;24974;54.444;18.560;2022-08-03T07:11:47;101532.63;;;25.08;44.91
28797;BME280;24974;54.444;18.560;2022-08-03T07:14:18;101527.00;;;25.08;46.06
28797;BME280;24974;54.444;18.560;2022-08-03T07:16:49;101527.53;;;25.24;46.00
28797;BME280;24974;54.444;18.560;2022-08-03T07:19:20;101524.09;;;25.49;45.76
28797;BME280;24974;54.444;18.560;2022-08-03T07:21:51;101522.88;;;25.43;47.14
28797;BME280;24974;54.444;18.560;2022-08-03T07:24:22;101524.44;;;25.40;47.63
28797;BME280;24974;54.444;18.560;2022-08-03T07:26:53;101525.41;;;25.07;48.80
28797;BME280;24974;54.444;18.560;2022-08-03T07:29:24;101534.28;;;25.13;48.41
28797;BME280;24974;54.444;18.560;2022-08-03T07:31:55;101521.50;;;25.22;48.01
28797;BME280;24974;54.444;18.560;2022-08-03T07:34:26;101529.31;;;25.02;48.50
28797;BME280;24974;54.444;18.560;2022-08-03T07:36:57;101528.63;;;25.09;48.44
28797;BME280;24974;54.444;18.560;2022-08-03T07:39:28;101529.16;;;24.81;49.56
28797;BME280;24974;54.444;18.560;2022-08-03T07:41:59;101528.81;;;24.90;49.16
28797;BME280;24974;54.444;18.560;2022-08-03T07:44:30;101535.09;;;24.76;49.70
28797;BME280;24974;54.444;18.560;2022-08-03T07:47:01;101529.41;;;24.69;49.91
28797;BME280;24974;54.444;18.560;2022-08-03T07:49:31;101526.75;;;24.83;49.48
28797;BME280;24974;54.444;18.560;2022-08-03T07:52:02;101528.50;;;24.98;50.05
28797;BME280;24974;54.444;18.560;2022-08-03T07:54:52;101531.22;;;25.28;49.72
28797;BME280;24974;54.444;18.560;2022-08-03T07:57:23;101529.97;;;24.85;51.08
28797;BME280;24974;54.444;18.560;2022-08-03T07:59:54;101530.75;;;24.78;51.03
28797;BME280;24974;54.444;18.560;2022-08-03T08:02:25;101526.75;;;25.24;50.31
28797;BME280;24974;54.444;18.560;2022-08-03T08:04:55;101531.72;;;24.97;51.06
28797;BME280;24974;54.444;18.560;2022-08-03T08:07:26;101535.09;;;25.13;51.21
28797;BME280;24974;54.444;18.560;2022-08-03T08:09:57;101530.22;;;25.10;51.37
28797;BME280;24974;54.444;18.560;2022-08-03T08:12:28;101536.94;;;24.98;52.31
28797;BME280;24974;54.444;18.560;2022-08-03T08:14:59;101532.38;;;24.83;52.72
28797;BME280;24974;54.444;18.560;2022-08-03T08:17:30;101542.28;;;24.70;53.80
28797;BME280;24974;54.444;18.560;2022-08-03T08:20:14;101536.41;;;24.86;53.12
28797;BME280;24974;54.444;18.560;2022-08-03T08:22:46;101540.56;;;24.99;52.25
28797;BME280;24974;54.444;18.560;2022-08-03T08:25:17;101538.81;;;24.83;52.77
28797;BME280;24974;54.444;18.560;2022-08-03T08:27:49;101552.16;;;24.94;52.03
28797;BME280;24974;54.444;18.560;2022-08-03T08:30:21;101544.97;;;25.00;51.66
28797;BME280;24974;54.444;18.560;2022-08-03T08:32:52;101540.66;;;24.69;52.61
28797;BME280;24974;54.444;18.560;2022-08-03T08:35:23;101542.50;;;24.91;52.47
28797;BME280;24974;54.444;18.560;2022-08-03T08:37:55;101548.28;;;25.05;52.90
28797;BME280;24974;54.444;18.560;2022-08-03T08:40:26;101549.22;;;24.79;53.71
28797;BME280;24974;54.444;18.560;2022-08-03T08:42:57;101549.22;;;24.46;54.75
28797;BME280;24974;54.444;18.560;2022-08-03T08:45:28;101541.84;;;24.68;53.52
28797;BME280;24974;54.444;18.560;2022-08-03T08:48:01;101543.91;;;24.71;53.99
28797;BME280;24974;54.444;18.560;2022-08-03T08:50:33;101545.97;;;24.77;53.31
28797;BME280;24974;54.444;18.560;2022-08-03T08:53:11;101554.41;;;25.18;52.88
28797;BME280;24974;54.444;18.560;2022-08-03T08:55:45;101540.84;;;25.27;53.72
28797;BME280;24974;54.444;18.560;2022-08-03T08:58:18;101542.03;;;25.26;53.79
28797;BME280;24974;54.444;18.560;2022-08-03T09:00:51;101542.25;;;25.55;52.99
28797;BME280;24974;54.444;18.560;2022-08-03T09:03:22;101539.13;;;25.67;52.35
28797;BME280;24974;54.444;18.560;2022-08-03T09:05:53;101545.81;;;26.10;50.83
28797;BME280;24974;54.444;18.560;2022-08-03T09:08:24;101545.81;;;26.10;49.97
28797;BME280;24974;54.444;18.560;2022-08-03T09:10:55;101540.78;;;26.48;48.72
28797;BME280;24974;54.444;18.560;2022-08-03T09:13:26;101545.59;;;26.47;48.51
28797;BME280;24974;54.444;18.560;2022-08-03T09:16:18;101545.25;;;26.77;47.81
28797;BME280;24974;54.444;18.560;2022-08-03T09:18:51;101540.50;;;27.28;46.94
28797;BME280;24974;54.444;18.560;2022-08-03T09:21:24;101545.31;;;27.35;46.87
28797;BME280;24974;54.444;18.560;2022-08-03T09:23:57;101540.03;;;26.94;47.51
28797;BME280;24974;54.444;18.560;2022-08-03T09:26:29;101546.50;;;27.58;44.94
28797;BME280;24974;54.444;18.560;2022-08-03T09:29:08;101537.66;;;27.35;46.14
28797;BME280;24974;54.444;18.560;2022-08-03T09:31:41;101546.56;;;27.44;45.19
28797;BME280;24974;54.444;18.560;2022-08-03T09:34:14;101553.00;;;27.23;45.29
28797;BME280;24974;54.444;18.560;2022-08-03T09:36:47;101543.69;;;27.73;44.78
28797;BME280;24974;54.444;18.560;2022-08-03T09:39:21;101546.16;;;27.46;44.20
28797;BME280;24974;54.444;18.560;2022-08-03T09:44:41;101537.91;;;28.19;40.78
28797;BME280;24974;54.444;18.560;2022-08-03T09:47:14;101535.50;;;28.14;39.30
28797;BME280;24974;54.444;18.560;2022-08-03T09:50:07;101532.22;;;28.33;39.26
28797;BME280;24974;54.444;18.560;2022-08-03T09:52:39;101534.34;;;28.85;37.75
28797;BME280;24974;54.444;18.560;2022-08-03T09:55:12;101535.91;;;28.96;35.24
28797;BME280;24974;54.444;18.560;2022-08-03T09:57:43;101533.34;;;29.13;37.05
28797;BME280;24974;54.444;18.560;2022-08-03T10:00:16;101535.91;;;28.93;39.53
28797;BME280;24974;54.444;18.560;2022-08-03T10:02:47;101531.47;;;28.92;38.72
28797;BME280;24974;54.444;18.560;2022-08-03T10:05:31;101527.72;;;29.09;38.77
28797;BME280;24974;54.444;18.560;2022-08-03T10:08:13;101530.03;;;29.21;39.49
28797;BME280;24974;54.444;18.560;2022-08-03T10:10:46;101536.41;;;28.81;39.22
28797;BME280;24974;54.444;18.560;2022-08-03T10:13:18;101527.34;;;29.48;37.69
28797;BME280;24974;54.444;18.560;2022-08-03T10:15:49;101533.94;;;28.90;37.91
28797;BME280;24974;54.444;18.560;2022-08-03T10:18:20;101525.75;;;29.89;33.52
28797;BME280;24974;54.444;18.560;2022-08-03T10:20:52;101528.59;;;29.47;35.62
28797;BME280;24974;54.444;18.560;2022-08-03T10:23:25;101525.50;;;29.76;34.30
28797;BME280;24974;54.444;18.560;2022-08-03T10:26:02;101525.16;;;29.70;34.74
28797;BME280;24974;54.444;18.560;2022-08-03T10:28:35;101528.41;;;30.37;33.21
28797;BME280;24974;54.444;18.560;2022-08-03T10:31:09;101527.41;;;29.86;35.00
28797;BME280;24974;54.444;18.560;2022-08-03T10:33:43;101515.91;;;30.61;33.96
28797;BME280;24974;54.444;18.560;2022-08-03T10:36:17;101519.47;;;31.43;32.52
28797;BME280;24974;54.444;18.560;2022-08-03T10:38:50;101514.50;;;31.70;31.29
28797;BME280;24974;54.444;18.560;2022-08-03T10:41:26;101516.72;;;31.83;30.78
28797;BME280;24974;54.444;18.560;2022-08-03T10:44:09;101507.59;;;32.67;30.49
28797;BME280;24974;54.444;18.560;2022-08-03T10:46:44;101512.34;;;31.98;30.38
28797;BME280;24974;54.444;18.560;2022-08-03T10:49:18;101511.78;;;32.79;30.13
28797;BME280;24974;54.444;18.560;2022-08-03T10:51:49;101513.47;;;31.61;30.79
28797;BME280;24974;54.444;18.560;2022-08-03T10:54:43;101500.88;;;32.21;31.25
28797;BME280;24974;54.444;18.560;2022-08-03T10:57:52;101508.16;;;31.63;32.34
28797;BME280;24974;54.444;18.560;2022-08-03T11:00:25;101502.13;;;31.61;32.36
28797;BME280;24974;54.444;18.560;2022-08-03T11:03:01;101508.28;;;31.09;32.73
28797;BME280;24974;54.444;18.560;2022-08-03T11:05:37;101511.25;;;31.02;33.92
28797;BME280;24974;54.444;18.560;2022-08-03T11:10:56;101505.38;;;31.59;32.77
28797;BME280;24974;54.444;18.560;2022-08-03T11:13:29;101499.22;;;32.60;30.55
28797;BME280;24974;54.444;18.560;2022-08-03T11:16:18;101500.16;;;32.37;31.64
28797;BME280;24974;54.444;18.560;2022-08-03T11:19:04;101505.88;;;32.53;32.85
28797;BME280;24974;54.444;18.560;2022-08-03T11:40:49;101489.81;;;32.07;34.54
28797;BME280;24974;54.444;18.560;2022-08-03T11:46:12;101485.75;;;32.24;34.94
28797;BME280;24974;54.444;18.560;2022-08-03T11:48:51;101484.41;;;32.85;34.57
28797;BME280;24974;54.444;18.560;2022-08-03T11:51:27;101478.44;;;32.07;36.10
28797;BME280;24974;54.444;18.560;2022-08-03T11:54:00;101482.59;;;32.75;35.36
28797;BME280;24974;54.444;18.560;2022-08-03T11:56:47;101470.28;;;32.45;36.15
28797;BME280;24974;54.444;18.560;2022-08-03T11:59:31;101486.16;;;32.26;36.62
28797;BME280;24974;54.444;18.560;2022-08-03T12:02:06;101469.66;;;32.90;36.58
28797;BME280;24974;54.444;18.560;2022-08-03T12:04:50;101471.94;;;32.95;36.11
28797;BME280;24974;54.444;18.560;2022-08-03T12:07:22;101477.09;;;32.68;36.09
28797;BME280;24974;54.444;18.560;2022-08-03T12:10:10;101484.28;;;32.00;38.06
28797;BME280;24974;54.444;18.560;2022-08-03T12:12:41;101474.03;;;32.22;37.62
28797;BME280;24974;54.444;18.560;2022-08-03T12:15:12;101476.25;;;32.15;37.68
28797;BME280;24974;54.444;18.560;2022-08-03T12:17:43;101465.34;;;31.93;38.02
28797;BME280;24974;54.444;18.560;2022-08-03T12:20:20;101462.97;;;33.13;35.46
28797;BME280;24974;54.444;18.560;2022-08-03T12:22:52;101454.88;;;33.57;34.38
28797;BME280;24974;54.444;18.560;2022-08-03T12:25:24;101454.72;;;33.48;34.66
28797;BME280;24974;54.444;18.560;2022-08-03T12:28:18;101455.88;;;33.34;35.06
28797;BME280;24974;54.444;18.560;2022-08-03T12:30:51;101459.44;;;33.67;34.25
28797;BME280;24974;54.444;18.560;2022-08-03T12:33:24;101454.38;;;32.80;36.59
28797;BME280;24974;54.444;18.560;2022-08-03T12:36:06;101442.72;;;33.40;35.56
28797;BME280;24974;54.444;18.560;2022-08-03T12:38:38;101450.41;;;33.56;35.01
28797;BME280;24974;54.444;18.560;2022-08-03T12:41:10;101449.09;;;33.44;36.12
28797;BME280;24974;54.444;18.560;2022-08-03T12:43:48;101447.81;;;33.16;35.90
28797;BME280;24974;54.444;18.560;2022-08-03T12:46:20;101446.19;;;33.31;35.59
28797;BME280;24974;54.444;18.560;2022-08-03T12:48:58;101439.81;;;33.11;35.87
28797;BME280;24974;54.444;18.560;2022-08-03T12:51:32;101440.53;;;33.15;36.55
28797;BME280;24974;54.444;18.560;2022-08-03T12:54:04;101426.41;;;33.70;35.03
28797;BME280;24974;54.444;18.560;2022-08-03T12:57:02;101438.81;;;33.63;35.43
28797;BME280;24974;54.444;18.560;2022-08-03T12:59:44;101434.88;;;33.28;35.62
28797;BME280;24974;54.444;18.560;2022-08-03T13:02:23;101425.34;;;34.05;34.43
28797;BME280;24974;54.444;18.560;2022-08-03T13:04:54;101439.59;;;33.92;34.41
28797;BME280;24974;54.444;18.560;2022-08-03T13:07:25;101432.19;;;33.95;34.67
28797;BME280;24974;54.444;18.560;2022-08-03T13:09:56;101437.25;;;33.00;35.98
28797;BME280;24974;54.444;18.560;2022-08-03T13:12:27;101433.84;;;31.21;38.67
28797;BME280;24974;54.444;18.560;2022-08-03T13:14:59;101426.69;;;31.96;38.26
28797;BME280;24974;54.444;18.560;2022-08-03T13:17:30;101414.72;;;32.05;38.18
28797;BME280;24974;54.444;18.560;2022-08-03T13:22:52;101422.25;;;31.95;37.57
28797;BME280;24974;54.444;18.560;2022-08-03T13:25:23;101427.13;;;30.88;40.54
28797;BME280;24974;54.444;18.560;2022-08-03T13:27:54;101428.72;;;31.75;39.54
28797;BME280;24974;54.444;18.560;2022-08-03T13:30:25;101417.41;;;32.64;38.10
28797;BME280;24974;54.444;18.560;2022-08-03T13:32:56;101420.34;;;32.77;37.43
28797;BME280;24974;54.444;18.560;2022-08-03T13:35:28;101413.28;;;33.14;37.18
28797;BME280;24974;54.444;18.560;2022-08-03T13:37:59;101420.25;;;32.64;38.00
28797;BME280;24974;54.444;18.560;2022-08-03T13:40:29;101420.94;;;33.17;36.31
28797;BME280;24974;54.444;18.560;2022-08-03T13:43:01;101410.81;;;33.00;35.88
28797;BME280;24974;54.444;18.560;2022-08-03T13:45:32;101405.97;;;33.29;35.63
28797;BME280;24974;54.444;18.560;2022-08-03T13:48:04;101405.47;;;33.02;34.98
28797;BME280;24974;54.444;18.560;2022-08-03T13:50:35;101415.41;;;33.55;34.23
28797;BME280;24974;54.444;18.560;2022-08-03T13:53:05;101418.72;;;33.54;33.73
28797;BME280;24974;54.444;18.560;2022-08-03T13:55:36;101414.97;;;33.11;35.27
28797;BME280;24974;54.444;18.560;2022-08-03T13:58:07;101400.38;;;33.67;34.56
28797;BME280;24974;54.444;18.560;2022-08-03T14:00:41;101406.28;;;32.86;35.33
28797;BME280;24974;54.444;18.560;2022-08-03T14:03:12;101409.94;;;32.70;35.30
28797;BME280;24974;54.444;18.560;2022-08-03T14:05:43;101402.78;;;33.11;35.24
28797;BME280;24974;54.444;18.560;2022-08-03T14:08:14;101398.69;;;33.12;34.70
28797;BME280;24974;54.444;18.560;2022-08-03T14:10:45;101399.50;;;32.31;36.15
28797;BME280;24974;54.444;18.560;2022-08-03T14:13:16;101404.00;;;32.97;35.17
28797;BME280;24974;54.444;18.560;2022-08-03T14:15:47;101409.88;;;32.21;36.85
28797;BME280;24974;54.444;18.560;2022-08-03T14:18:19;101411.44;;;32.59;34.82
28797;BME280;24974;54.444;18.560;2022-08-03T14:20:50;101389.31;;;32.34;35.52
28797;BME280;24974;54.444;18.560;2022-08-03T14:23:21;101396.06;;;32.56;35.19
28797;BME280;24974;54.444;18.560;2022-08-03T14:25:52;101393.41;;;32.33;35.67
28797;BME280;24974;54.444;18.560;2022-08-03T14:28:23;101394.72;;;32.61;35.20
28797;BME280;24974;54.444;18.560;2022-08-03T14:30:55;101381.75;;;32.60;35.49
28797;BME280;24974;54.444;18.560;2022-08-03T14:33:26;101383.78;;;32.43;35.20
28797;BME280;24974;54.444;18.560;2022-08-03T14:35:58;101371.56;;;32.10;36.40
28797;BME280;24974;54.444;18.560;2022-08-03T14:38:29;101382.69;;;32.20;36.66
28797;BME280;24974;54.444;18.560;2022-08-03T14:40:59;101378.56;;;32.05;36.49
28797;BME280;24974;54.444;18.560;2022-08-03T14:43:30;101377.44;;;32.19;36.39
28797;BME280;24974;54.444;18.560;2022-08-03T14:46:01;101376.63;;;32.18;35.71
28797;BME280;24974;54.444;18.560;2022-08-03T14:48:32;101373.97;;;32.27;35.55
28797;BME280;24974;54.444;18.560;2022-08-03T14:51:04;101377.91;;;31.61;36.51
28797;BME280;24974;54.444;18.560;2022-08-03T14:53:35;101366.88;;;30.53;38.49
28797;BME280;24974;54.444;18.560;2022-08-03T14:56:06;101369.44;;;30.21;38.88
28797;BME280;24974;54.444;18.560;2022-08-03T14:58:37;101368.09;;;29.71;40.01
28797;BME280;24974;54.444;18.560;2022-08-03T15:01:08;101366.00;;;29.45;40.93
28797;BME280;24974;54.444;18.560;2022-08-03T15:03:39;101368.00;;;29.10;41.59
28797;BME280;24974;54.444;18.560;2022-08-03T15:06:10;101366.31;;;29.16;42.01
28797;BME280;24974;54.444;18.560;2022-08-03T15:08:41;101368.53;;;28.98;42.31
28797;BME280;24974;54.444;18.560;2022-08-03T15:11:12;101361.72;;;28.92;42.52
28797;BME280;24974;54.444;18.560;2022-08-03T15:13:43;101363.06;;;29.18;41.47
28797;BME280;24974;54.444;18.560;2022-08-03T15:16:13;101358.97;;;29.22;41.86
28797;BME280;24974;54.444;18.560;2022-08-03T15:18:44;101354.13;;;29.19;41.42
28797;BME280;24974;54.444;18.560;2022-08-03T15:21:15;101365.06;;;29.55;41.07
28797;BME280;24974;54.444;18.560;2022-08-03T15:23:46;101356.50;;;29.89;40.61
28797;BME280;24974;54.444;18.560;2022-08-03T15:26:17;101356.19;;;30.64;39.42
28797;BME280;24974;54.444;18.560;2022-08-03T15:28:48;101348.19;;;30.83;38.72
28797;BME280;24974;54.444;18.560;2022-08-03T15:31:23;101354.06;;;31.55;37.26
28797;BME280;24974;54.444;18.560;2022-08-03T15:33:54;101347.00;;;31.43;37.82
28797;BME280;24974;54.444;18.560;2022-08-03T15:36:25;101343.50;;;31.36;38.22
28797;BME280;24974;54.444;18.560;2022-08-03T15:38:56;101351.41;;;31.05;39.26
28797;BME280;24974;54.444;18.560;2022-08-03T15:41:27;101347.16;;;30.93;39.44
28797;BME280;24974;54.444;18.560;2022-08-03T15:44:00;101344.94;;;31.04;39.02
28797;BME280;24974;54.444;18.560;2022-08-03T15:46:31;101338.19;;;31.78;37.11
28797;BME280;24974;54.444;18.560;2022-08-03T15:49:02;101335.53;;;31.87;35.77
28797;BME280;24974;54.444;18.560;2022-08-03T15:51:32;101333.44;;;32.56;34.47
28797;BME280;24974;54.444;18.560;2022-08-03T15:54:04;101336.84;;;32.67;34.79
28797;BME280;24974;54.444;18.560;2022-08-03T15:56:36;101339.94;;;32.56;35.93
28797;BME280;24974;54.444;18.560;2022-08-03T15:59:07;101333.81;;;32.58;34.78
28797;BME280;24974;54.444;18.560;2022-08-03T16:01:38;101337.19;;;32.20;36.06
28797;BME280;24974;54.444;18.560;2022-08-03T16:04:09;101337.69;;;31.99;37.90
28797;BME280;24974;54.444;18.560;2022-08-03T16:06:40;101339.50;;;31.33;39.61
28797;BME280;24974;54.444;18.560;2022-08-03T16:09:11;101345.28;;;31.30;39.28
28797;BME280;24974;54.444;18.560;2022-08-03T16:11:41;101341.81;;;31.18;40.16
28797;BME280;24974;54.444;18.560;2022-08-03T16:14:12;101337.84;;;30.92;40.76
28797;BME280;24974;54.444;18.560;2022-08-03T16:16:43;101337.13;;;30.65;40.91
28797;BME280;24974;54.444;18.560;2022-08-03T16:19:14;101330.44;;;31.18;39.74
28797;BME280;24974;54.444;18.560;2022-08-03T16:21:45;101330.81;;;31.80;38.47
28797;BME280;24974;54.444;18.560;2022-08-03T16:24:16;101330.16;;;31.72;37.65
28797;BME280;24974;54.444;18.560;2022-08-03T16:26:46;101337.75;;;31.39;38.04
28797;BME280;24974;54.444;18.560;2022-08-03T16:29:17;101334.28;;;31.32;38.52
28797;BME280;24974;54.444;18.560;2022-08-03T18:28:31;101380.38;;;24.62;56.28
28797;BME280;24974;54.444;18.560;2022-08-03T18:31:03;101385.63;;;24.63;54.38
28797;BME280;24974;54.444;18.560;2022-08-03T18:33:38;101385.72;;;24.74;54.76
28797;BME280;24974;54.444;18.560;2022-08-03T18:36:14;101385.69;;;24.29;55.69
28797;BME280;24974;54.444;18.560;2022-08-03T18:38:48;101384.63;;;24.41;55.30
28797;BME280;24974;54.444;18.560;2022-08-03T18:41:21;101396.91;;;24.29;55.77
28797;BME280;24974;54.444;18.560;2022-08-03T18:43:52;101402.50;;;24.26;55.42
28797;BME280;24974;54.444;18.560;2022-08-03T18:51:45;101410.50;;;23.87;57.03
28797;BME280;24974;54.444;18.560;2022-08-03T18:54:26;101413.63;;;23.82;57.15
28797;BME280;24974;54.444;18.560;2022-08-03T18:56:59;101408.63;;;23.64;57.81
28797;BME280;24974;54.444;18.560;2022-08-03T18:59:47;101412.03;;;23.51;58.17
28797;BME280;24974;54.444;18.560;2022-08-03T19:02:34;101423.75;;;23.30;58.82
28797;BME280;24974;54.444;18.560;2022-08-03T19:05:07;101421.38;;;23.05;59.21
